createdAt,value
2019-05-19T00:00:00.376Z,46.50
2019-05-19T00:02:29.096Z,46.50
2019-05-19T00:04:57.784Z,46.50
2019-05-19T00:07:26.443Z,47.20
2019-05-19T00:09:55.257Z,46.40
2019-05-19T00:12:24.049Z,46.30
2019-05-19T00:14:52.768Z,46.70
2019-05-19T00:17:21.470Z,47.00
2019-05-19T00:19:50.183Z,46.40
2019-05-19T00:22:18.874Z,46.40
2019-05-19T00:24:47.709Z,46.30
2019-05-19T00:27:16.458Z,46.30
2019-05-19T00:29:45.140Z,46.70
2019-05-19T00:32:13.831Z,46.30
2019-05-19T00:34:42.506Z,46.30
2019-05-19T00:37:11.368Z,46.30
2019-05-19T00:39:40.275Z,46.30
2019-05-19T00:42:08.943Z,46.20
2019-05-19T00:44:37.646Z,46.30
2019-05-19T00:47:06.304Z,46.40
2019-05-19T00:49:41.331Z,46.30
2019-05-19T00:52:05.972Z,46.40
2019-05-19T00:54:34.672Z,46.30
2019-05-19T00:57:04.646Z,46.30
2019-05-19T00:59:35.316Z,46.20
2019-05-19T01:02:04.032Z,46.20
2019-05-19T01:04:32.731Z,46.20
2019-05-19T01:07:01.600Z,46.20
2019-05-19T01:09:30.280Z,46.10
2019-05-19T01:11:59.164Z,46.30
2019-05-19T01:14:27.843Z,46.10
2019-05-19T01:16:56.515Z,46.20
2019-05-19T01:19:25.279Z,46.20
2019-05-19T01:21:54.789Z,46.50
2019-05-19T01:24:23.656Z,46.50
2019-05-19T01:26:52.464Z,46.60
2019-05-19T01:29:21.133Z,46.80
2019-05-19T01:31:50.194Z,47.00
2019-05-19T01:34:18.907Z,47.10
2019-05-19T01:36:47.611Z,47.30
2019-05-19T01:39:16.299Z,47.40
2019-05-19T01:41:44.991Z,47.40
2019-05-19T01:44:13.764Z,47.50
2019-05-19T01:46:42.464Z,47.50
2019-05-19T01:49:11.151Z,47.60
2019-05-19T01:51:39.886Z,47.60
2019-05-19T01:54:08.541Z,47.70
2019-05-19T01:56:37.245Z,47.80
2019-05-19T01:59:05.997Z,47.60
2019-05-19T02:01:34.804Z,47.50
2019-05-19T02:04:03.494Z,47.70
2019-05-19T02:06:32.215Z,47.80
2019-05-19T02:09:00.871Z,48.00
2019-05-19T02:11:29.593Z,48.30
2019-05-19T02:13:58.326Z,48.30
2019-05-19T02:16:27.027Z,48.50
2019-05-19T02:18:56.154Z,48.20
2019-05-19T02:21:24.846Z,48.30
2019-05-19T02:23:53.558Z,48.40
2019-05-19T02:26:22.242Z,48.60
2019-05-19T02:28:50.933Z,48.30
2019-05-19T02:31:19.645Z,48.50
2019-05-19T02:33:48.383Z,48.50
2019-05-19T02:36:18.360Z,48.30
2019-05-19T02:38:47.065Z,48.50
2019-05-19T02:41:17.633Z,48.40
2019-05-19T02:43:47.705Z,48.50
2019-05-19T02:46:17.018Z,48.60
2019-05-19T02:48:45.993Z,48.50
2019-05-19T02:51:16.554Z,48.60
2019-05-19T02:53:45.756Z,48.60
2019-05-19T02:56:15.027Z,48.80
2019-05-19T02:58:44.542Z,49.10
2019-05-19T03:01:13.788Z,49.90
2019-05-19T03:03:42.498Z,49.10
2019-05-19T03:06:11.167Z,49.20
2019-05-19T03:08:39.856Z,49.30
2019-05-19T03:11:08.641Z,49.20
2019-05-19T03:13:37.323Z,49.00
2019-05-19T03:16:06.131Z,49.30
2019-05-19T03:18:34.811Z,49.00
2019-05-19T03:21:11.044Z,49.10
2019-05-19T03:23:34.063Z,49.10
2019-05-19T03:26:02.828Z,49.10
2019-05-19T03:28:31.505Z,49.20
2019-05-19T03:31:19.677Z,49.40
2019-05-19T03:33:58.351Z,49.10
2019-05-19T03:36:27.120Z,49.40
2019-05-19T03:38:55.812Z,49.20
2019-05-19T03:41:24.583Z,49.20
2019-05-19T03:43:53.244Z,49.10
2019-05-19T03:46:21.963Z,49.00
2019-05-19T03:48:50.800Z,49.20
2019-05-19T03:51:30.113Z,49.30
2019-05-19T03:53:50.292Z,49.20
2019-05-19T03:56:18.998Z,49.30
2019-05-19T03:58:47.666Z,49.10
2019-05-19T04:01:16.378Z,49.30
2019-05-19T04:03:45.098Z,49.10
2019-05-19T04:06:13.786Z,49.00
2019-05-19T04:08:42.492Z,49.00
2019-05-19T04:11:11.164Z,49.20
2019-05-19T04:13:39.978Z,49.40
2019-05-19T04:16:08.669Z,49.20
2019-05-19T04:18:37.618Z,49.20
2019-05-19T04:21:06.312Z,49.40
2019-05-19T04:23:35.012Z,49.50
2019-05-19T04:26:03.688Z,49.50
2019-05-19T04:28:32.387Z,49.60
2019-05-19T04:31:01.066Z,49.40
2019-05-19T04:33:29.838Z,49.60
2019-05-19T04:35:58.565Z,49.50
2019-05-19T04:38:27.258Z,49.50
2019-05-19T04:40:56.133Z,49.70
2019-05-19T04:43:24.926Z,49.90
2019-05-19T04:45:53.596Z,50.00
2019-05-19T04:48:22.268Z,49.90
2019-05-19T04:50:50.979Z,50.00
2019-05-19T04:53:19.689Z,50.10
2019-05-19T04:55:48.595Z,50.10
2019-05-19T04:58:17.355Z,50.30
2019-05-19T05:00:46.068Z,50.20
2019-05-19T05:03:14.818Z,50.20
2019-05-19T05:05:43.575Z,51.00
2019-05-19T05:08:27.786Z,50.50
2019-05-19T05:10:42.669Z,50.40
2019-05-19T05:13:11.346Z,50.50
2019-05-19T05:15:40.023Z,50.60
2019-05-19T05:18:08.716Z,50.70
2019-05-19T05:20:37.391Z,50.90
2019-05-19T05:23:06.101Z,50.80
2019-05-19T05:25:34.811Z,51.10
2019-05-19T05:28:03.517Z,50.90
2019-05-19T05:30:32.263Z,51.30
2019-05-19T05:33:00.967Z,51.20
2019-05-19T05:35:29.813Z,51.10
2019-05-19T05:37:58.981Z,51.80
2019-05-19T05:40:28.252Z,51.40
2019-05-19T05:42:56.958Z,51.20
2019-05-19T05:45:25.645Z,51.20
2019-05-19T05:47:54.402Z,51.20
2019-05-19T05:50:23.117Z,51.30
2019-05-19T05:52:51.888Z,51.00
2019-05-19T05:55:20.593Z,50.90
2019-05-19T05:57:49.276Z,51.00
2019-05-19T06:00:19.084Z,50.80
2019-05-19T06:02:47.757Z,51.10
2019-05-19T06:05:16.531Z,51.00
2019-05-19T06:07:45.234Z,51.20
2019-05-19T06:10:14.439Z,51.20
2019-05-19T06:12:43.098Z,51.20
2019-05-19T06:15:12.069Z,51.30
2019-05-19T06:17:40.770Z,51.40
2019-05-19T06:20:09.629Z,51.30
2019-05-19T06:22:54.565Z,51.50
2019-05-19T06:25:08.738Z,51.60
2019-05-19T06:27:37.448Z,51.70
2019-05-19T06:30:08.811Z,51.60
2019-05-19T06:32:44.638Z,51.80
2019-05-19T06:35:13.791Z,51.70
2019-05-19T06:37:43.589Z,51.80
2019-05-19T06:40:12.653Z,52.00
2019-05-19T06:42:41.350Z,51.90
2019-05-19T06:45:10.823Z,52.00
2019-05-19T06:47:39.547Z,52.00
2019-05-19T06:50:08.832Z,51.90
2019-05-19T06:52:37.528Z,51.80
2019-05-19T06:55:07.445Z,51.80
2019-05-19T06:57:36.113Z,52.00
2019-05-19T07:00:06.596Z,51.90
2019-05-19T07:02:35.313Z,51.50
2019-05-19T07:05:07.249Z,51.10
2019-05-19T07:07:35.951Z,50.60
2019-05-19T07:10:06.694Z,50.60
2019-05-19T07:12:35.603Z,50.20
2019-05-19T07:15:05.270Z,50.00
2019-05-19T07:17:34.131Z,50.00
2019-05-19T07:20:02.882Z,49.90
2019-05-19T07:22:31.975Z,49.70
2019-05-19T07:25:00.733Z,49.00
2019-05-19T07:27:29.412Z,48.60
2019-05-19T07:29:58.098Z,48.50
2019-05-19T07:32:26.901Z,48.40
2019-05-19T07:34:55.927Z,48.50
2019-05-19T07:37:24.595Z,48.30
2019-05-19T07:39:53.378Z,48.00
2019-05-19T07:42:22.125Z,47.20
2019-05-19T07:44:50.808Z,46.90
2019-05-19T07:47:19.486Z,46.90
2019-05-19T07:49:48.318Z,46.90
2019-05-19T07:52:17.121Z,46.90
2019-05-19T07:54:45.792Z,46.90
2019-05-19T07:57:14.478Z,47.00
2019-05-19T07:59:43.207Z,47.00
2019-05-19T08:02:11.935Z,47.00
2019-05-19T08:04:40.687Z,47.10
2019-05-19T08:07:10.718Z,46.50
2019-05-19T08:09:39.439Z,46.40
2019-05-19T08:12:08.132Z,46.90
2019-05-19T08:14:36.807Z,46.00
2019-05-19T08:17:05.876Z,45.70
2019-05-19T08:19:34.594Z,45.40
2019-05-19T08:22:03.307Z,45.50
2019-05-19T08:24:32.026Z,45.40
2019-05-19T08:27:00.717Z,45.50
2019-05-19T08:29:29.403Z,45.50
2019-05-19T08:31:58.111Z,45.10
2019-05-19T08:34:26.815Z,44.60
2019-05-19T08:36:55.565Z,44.30
2019-05-19T08:39:24.269Z,44.30
2019-05-19T08:41:52.950Z,43.90
2019-05-19T08:44:21.787Z,43.80
2019-05-19T08:46:50.505Z,42.90
2019-05-19T08:49:19.549Z,42.70
2019-05-19T08:51:48.228Z,43.00
2019-05-19T08:54:18.953Z,43.20
2019-05-19T08:56:47.320Z,42.70
2019-05-19T08:59:35.312Z,43.30
2019-05-19T09:02:04.225Z,42.00
2019-05-19T09:04:32.871Z,41.10
2019-05-19T09:07:01.626Z,41.00
2019-05-19T09:09:30.294Z,41.00
2019-05-19T09:11:58.995Z,40.40
2019-05-19T09:14:27.676Z,40.00
2019-05-19T09:16:56.547Z,39.70
2019-05-19T09:19:25.563Z,39.10
2019-05-19T09:21:54.467Z,38.90
2019-05-19T09:24:30.462Z,38.80
2019-05-19T09:26:53.533Z,38.90
2019-05-19T09:29:22.359Z,38.60
2019-05-19T09:31:51.172Z,38.60
2019-05-19T09:34:19.931Z,38.20
2019-05-19T09:36:48.599Z,38.00
2019-05-19T09:39:17.330Z,37.80
2019-05-19T09:41:46.015Z,37.80
2019-05-19T09:44:14.728Z,37.30
2019-05-19T09:46:43.392Z,37.20
2019-05-19T09:49:16.151Z,37.60
2019-05-19T09:51:44.838Z,37.70
2019-05-19T09:54:13.575Z,37.50
2019-05-19T09:56:42.339Z,37.40
2019-05-19T09:59:11.018Z,37.40
2019-05-19T10:01:39.817Z,37.80
2019-05-19T10:04:08.518Z,38.00
2019-05-19T10:06:37.200Z,37.60
2019-05-19T10:09:07.614Z,37.30
2019-05-19T10:12:01.257Z,37.40
2019-05-19T10:14:29.960Z,37.70
2019-05-19T10:16:58.636Z,37.50
2019-05-19T10:19:27.736Z,37.40
2019-05-19T10:21:56.431Z,37.50
2019-05-19T10:24:25.135Z,37.30
2019-05-19T10:26:53.833Z,37.20
2019-05-19T10:29:22.547Z,37.10
2019-05-19T10:31:54.252Z,37.50
2019-05-19T10:34:21.791Z,36.50
2019-05-19T10:36:50.504Z,36.00
2019-05-19T10:39:19.176Z,36.00
2019-05-19T10:41:47.837Z,36.10
2019-05-19T10:44:16.559Z,35.90
2019-05-19T10:46:45.331Z,36.50
2019-05-19T10:49:14.027Z,36.60
2019-05-19T10:51:42.753Z,36.60
2019-05-19T10:54:11.483Z,36.80
2019-05-19T10:56:40.202Z,36.80
2019-05-19T10:59:08.906Z,37.20
2019-05-19T11:01:37.641Z,36.90
2019-05-19T11:04:06.333Z,37.10
2019-05-19T11:06:35.039Z,37.60
2019-05-19T11:09:05.248Z,36.90
2019-05-19T11:11:34.027Z,37.70
2019-05-19T11:14:02.719Z,36.90
2019-05-19T11:16:31.386Z,37.20
2019-05-19T11:19:00.099Z,37.40
2019-05-19T11:21:28.768Z,37.40
2019-05-19T11:23:57.499Z,37.20
2019-05-19T11:26:26.188Z,36.40
2019-05-19T11:28:54.847Z,36.70
2019-05-19T11:31:24.699Z,36.60
2019-05-19T11:33:53.425Z,36.70
2019-05-19T11:36:22.131Z,36.80
2019-05-19T11:38:50.853Z,36.60
2019-05-19T11:41:19.519Z,36.70
2019-05-19T11:43:48.231Z,36.70
2019-05-19T11:46:16.948Z,36.60
2019-05-19T11:48:45.657Z,36.70
2019-05-19T11:51:14.337Z,36.80
2019-05-19T11:53:43.046Z,36.90
2019-05-19T11:56:11.820Z,36.90
2019-05-19T11:58:40.572Z,36.80
2019-05-19T12:01:09.323Z,36.70
2019-05-19T12:03:38.096Z,36.50
2019-05-19T12:06:06.818Z,36.60
2019-05-19T12:08:35.487Z,36.70
2019-05-19T12:11:04.305Z,36.70
2019-05-19T12:13:34.955Z,36.80
2019-05-19T12:16:03.563Z,36.50
2019-05-19T12:18:32.249Z,36.30
2019-05-19T12:21:00.961Z,35.80
2019-05-19T12:23:29.675Z,36.00
2019-05-19T12:25:58.431Z,35.90
2019-05-19T12:28:27.158Z,35.90
2019-05-19T12:30:55.859Z,36.00
2019-05-19T12:33:24.855Z,36.20
2019-05-19T12:35:53.531Z,35.70
2019-05-19T12:38:22.228Z,35.80
2019-05-19T12:40:50.930Z,35.20
2019-05-19T12:43:19.728Z,35.20
2019-05-19T12:45:48.470Z,35.20
2019-05-19T12:48:17.263Z,35.10
2019-05-19T12:50:45.952Z,35.00
2019-05-19T12:53:14.628Z,35.10
2019-05-19T12:55:43.336Z,35.20
2019-05-19T12:58:12.079Z,35.60
2019-05-19T13:00:40.791Z,36.10
2019-05-19T13:03:09.454Z,36.70
2019-05-19T13:05:38.279Z,37.10
2019-05-19T13:08:06.978Z,37.00
2019-05-19T13:10:35.751Z,37.80
2019-05-19T13:13:04.446Z,38.90
2019-05-19T13:15:33.161Z,39.90
2019-05-19T13:18:01.847Z,40.70
2019-05-19T13:20:30.528Z,40.50
2019-05-19T13:22:59.272Z,40.50
2019-05-19T13:25:28.191Z,40.30
2019-05-19T13:27:56.883Z,40.30
2019-05-19T13:30:25.603Z,40.10
2019-05-19T13:32:54.312Z,40.00
2019-05-19T13:35:22.988Z,39.90
2019-05-19T13:37:51.754Z,39.80
2019-05-19T13:40:20.428Z,39.90
2019-05-19T13:42:49.242Z,40.60
2019-05-19T13:45:18.138Z,40.00
2019-05-19T13:47:46.822Z,40.50
2019-05-19T13:50:15.523Z,39.90
2019-05-19T13:52:44.225Z,40.80
2019-05-19T13:55:12.883Z,41.40
2019-05-19T13:57:41.591Z,42.00
2019-05-19T14:00:12.275Z,42.30
2019-05-19T14:02:40.980Z,42.90
2019-05-19T14:05:09.830Z,43.30
2019-05-19T14:07:38.525Z,44.00
2019-05-19T14:10:08.385Z,44.00
2019-05-19T14:12:37.126Z,43.80
2019-05-19T14:15:08.004Z,44.20
2019-05-19T14:17:36.692Z,45.00
2019-05-19T14:20:07.507Z,45.60
2019-05-19T14:22:36.291Z,46.10
2019-05-19T14:25:06.027Z,46.30
2019-05-19T14:27:34.747Z,46.50
2019-05-19T14:30:04.012Z,46.70
2019-05-19T14:32:32.719Z,47.10
2019-05-19T14:35:01.415Z,46.40
2019-05-19T14:37:30.187Z,46.70
2019-05-19T14:39:58.977Z,47.00
2019-05-19T14:42:31.694Z,47.30
2019-05-19T14:45:00.425Z,47.50
2019-05-19T14:47:29.111Z,47.90
2019-05-19T14:49:57.893Z,48.10
2019-05-19T14:52:26.554Z,47.60
2019-05-19T14:54:55.320Z,48.10
2019-05-19T14:57:24.043Z,48.10
2019-05-19T14:59:52.762Z,48.20
2019-05-19T15:02:21.524Z,48.20
2019-05-19T15:04:50.203Z,49.10
2019-05-19T15:07:18.908Z,48.80
2019-05-19T15:09:47.638Z,49.00
2019-05-19T15:12:16.348Z,49.20
2019-05-19T15:14:45.064Z,49.50
2019-05-19T15:17:13.723Z,49.40
2019-05-19T15:19:42.488Z,49.70
2019-05-19T15:22:11.185Z,49.70
2019-05-19T15:24:39.984Z,49.80
2019-05-19T15:27:08.867Z,49.90
2019-05-19T15:29:37.584Z,49.90
2019-05-19T15:32:06.293Z,50.10
2019-05-19T15:34:34.966Z,50.10
2019-05-19T15:37:03.667Z,50.10
2019-05-19T15:39:32.352Z,49.90
2019-05-19T15:42:01.057Z,49.80
2019-05-19T15:44:29.751Z,50.00
2019-05-19T15:46:58.752Z,50.10
2019-05-19T15:49:27.534Z,50.20
2019-05-19T15:52:02.835Z,50.40
2019-05-19T15:54:26.706Z,50.30
2019-05-19T15:56:55.383Z,50.30
2019-05-19T15:59:24.106Z,50.40
2019-05-19T16:01:55.975Z,50.60
2019-05-19T16:04:24.733Z,51.10
2019-05-19T16:06:53.782Z,51.10
2019-05-19T16:09:22.474Z,51.20
2019-05-19T16:11:51.164Z,51.30
2019-05-19T16:14:19.913Z,51.40
2019-05-19T16:16:48.627Z,51.50
2019-05-19T16:19:17.528Z,51.50
2019-05-19T16:21:46.251Z,51.70
2019-05-19T16:24:14.992Z,51.80
2019-05-19T16:26:43.674Z,51.90
2019-05-19T16:29:12.537Z,51.90
2019-05-19T16:31:41.217Z,52.30
2019-05-19T16:34:09.977Z,52.50
2019-05-19T16:36:38.667Z,52.50
2019-05-19T16:39:08.134Z,52.60
2019-05-19T16:41:38.052Z,52.20
2019-05-19T16:44:08.320Z,51.80
2019-05-19T16:46:37.003Z,51.40
2019-05-19T16:49:06.043Z,51.40
2019-05-19T16:51:35.018Z,51.50
2019-05-19T16:54:11.130Z,51.40
2019-05-19T16:56:39.949Z,51.50
2019-05-19T16:59:08.938Z,51.70
2019-05-19T17:01:37.747Z,51.90
2019-05-19T17:04:06.510Z,51.70
2019-05-19T17:06:35.178Z,51.50
2019-05-19T17:09:04.637Z,51.40
2019-05-19T17:11:33.546Z,51.30
2019-05-19T17:14:02.386Z,51.30
2019-05-19T17:16:32.352Z,51.50
2019-05-19T17:19:01.192Z,51.50
2019-05-19T17:21:29.893Z,51.70
2019-05-19T17:23:58.683Z,51.40
2019-05-19T17:26:27.693Z,51.20
2019-05-19T17:29:00.498Z,50.80
2019-05-19T17:31:27.287Z,50.60
2019-05-19T17:33:56.237Z,50.50
2019-05-19T17:36:27.388Z,50.40
2019-05-19T17:38:55.302Z,50.50
2019-05-19T17:41:24.010Z,50.40
2019-05-19T17:43:52.693Z,50.40
2019-05-19T17:46:21.407Z,50.30
2019-05-19T17:48:50.245Z,49.80
2019-05-19T17:51:18.989Z,49.40
2019-05-19T17:53:47.678Z,49.40
2019-05-19T17:56:16.798Z,49.60
2019-05-19T17:58:46.875Z,49.80
2019-05-19T18:01:15.565Z,49.60
2019-05-19T18:03:44.973Z,49.80
2019-05-19T18:06:13.750Z,49.60
2019-05-19T18:08:42.608Z,49.60
2019-05-19T18:11:11.292Z,49.50
2019-05-19T18:13:40.026Z,49.30
2019-05-19T18:16:08.726Z,49.30
2019-05-19T18:18:58.279Z,50.00
2019-05-19T18:21:26.974Z,49.70
2019-05-19T18:23:55.653Z,50.10
2019-05-19T18:26:24.361Z,50.50
2019-05-19T18:28:53.043Z,50.90
2019-05-19T18:31:21.740Z,51.20
2019-05-19T18:33:50.591Z,51.40
2019-05-19T18:36:19.302Z,51.50
2019-05-19T18:38:48.100Z,51.30
2019-05-19T18:41:16.764Z,51.30
2019-05-19T18:43:45.482Z,51.40
2019-05-19T18:46:14.411Z,51.30
2019-05-19T18:48:43.122Z,50.90
2019-05-19T18:51:11.815Z,50.50
2019-05-19T18:53:40.535Z,50.30
2019-05-19T18:56:09.242Z,50.20
2019-05-19T18:58:37.927Z,50.20
2019-05-19T19:01:06.675Z,50.30
2019-05-19T19:03:35.383Z,50.60
2019-05-19T19:06:04.063Z,50.90
2019-05-19T19:08:32.814Z,51.00
2019-05-19T19:11:01.570Z,51.20
2019-05-19T19:13:31.326Z,51.20
2019-05-19T19:16:00.038Z,51.00
2019-05-19T19:18:28.696Z,51.20
2019-05-19T19:20:57.505Z,50.80
2019-05-19T19:23:26.462Z,51.00
2019-05-19T19:25:55.128Z,48.40
2019-05-19T19:28:23.853Z,48.30
2019-05-19T19:30:52.537Z,48.50
2019-05-19T19:33:21.364Z,48.20
2019-05-19T19:35:50.034Z,47.70
2019-05-19T19:38:19.759Z,47.50
2019-05-19T19:40:48.501Z,47.50
2019-05-19T19:43:17.205Z,47.70
2019-05-19T19:45:45.959Z,47.20
2019-05-19T19:48:14.685Z,46.70
2019-05-19T19:50:43.403Z,46.40
2019-05-19T19:53:12.068Z,46.30
2019-05-19T19:55:40.759Z,46.20
2019-05-19T19:58:09.434Z,45.90
2019-05-19T20:00:39.976Z,45.90
2019-05-19T20:03:08.812Z,45.90
2019-05-19T20:05:37.743Z,46.30
2019-05-19T20:08:07.407Z,46.40
2019-05-19T20:10:37.128Z,46.10
2019-05-19T20:13:06.203Z,46.10
2019-05-19T20:15:35.713Z,46.40
2019-05-19T20:18:04.425Z,47.00
2019-05-19T20:20:33.100Z,47.00
2019-05-19T20:23:01.840Z,47.30
2019-05-19T20:25:30.626Z,47.90
2019-05-19T20:27:59.331Z,48.20
2019-05-19T20:30:35.574Z,47.20
2019-05-19T20:32:58.699Z,47.30
2019-05-19T20:35:27.646Z,47.80
2019-05-19T20:37:56.376Z,47.80
2019-05-19T20:40:25.130Z,47.70
2019-05-19T20:42:56.705Z,47.70
2019-05-19T20:45:24.244Z,47.70
2019-05-19T20:47:52.899Z,47.70
2019-05-19T20:50:21.611Z,47.70
2019-05-19T20:52:50.435Z,47.70
2019-05-19T20:55:19.109Z,47.60
2019-05-19T20:57:48.012Z,47.60
2019-05-19T21:00:16.810Z,47.50
2019-05-19T21:02:45.478Z,47.60
2019-05-19T21:05:14.622Z,47.50
2019-05-19T21:07:43.350Z,47.50
2019-05-19T21:10:12.294Z,47.70
2019-05-19T21:12:41.023Z,47.90
2019-05-19T21:15:10.521Z,48.10
2019-05-19T21:17:39.207Z,48.30
2019-05-19T21:20:08.502Z,48.20
2019-05-19T21:22:37.320Z,48.20
2019-05-19T21:25:09.763Z,48.20
2019-05-19T21:27:38.448Z,48.20
2019-05-19T21:30:07.173Z,48.30
2019-05-19T21:32:36.055Z,48.30
2019-05-19T21:35:07.061Z,48.20
2019-05-19T21:37:36.459Z,48.10
2019-05-19T21:40:06.986Z,48.20
2019-05-19T21:42:35.683Z,48.20
2019-05-19T21:45:05.383Z,48.30
2019-05-19T21:47:34.404Z,48.30
2019-05-19T21:50:03.985Z,48.40
2019-05-19T21:52:33.412Z,48.50
2019-05-19T21:55:02.264Z,48.40
2019-05-19T21:57:31.000Z,48.50
2019-05-19T21:59:59.844Z,48.40
2019-05-19T22:02:28.560Z,48.60
2019-05-19T22:04:57.350Z,48.60
2019-05-19T22:07:39.397Z,48.60
2019-05-19T22:10:08.474Z,48.70
2019-05-19T22:12:37.275Z,48.70
2019-05-19T22:15:08.511Z,48.60
2019-05-19T22:17:37.208Z,48.60
2019-05-19T22:20:06.902Z,48.50
2019-05-19T22:22:35.575Z,48.40
2019-05-19T22:25:06.463Z,48.40
2019-05-19T22:27:35.261Z,48.40
2019-05-19T22:30:07.819Z,48.40
2019-05-19T22:32:36.498Z,48.40
2019-05-19T22:35:05.757Z,48.10
2019-05-19T22:37:34.464Z,48.50
2019-05-19T22:40:03.799Z,48.40
2019-05-19T22:42:32.544Z,48.30
2019-05-19T22:45:01.232Z,48.30
2019-05-19T22:47:29.924Z,48.30
2019-05-19T22:49:58.641Z,48.50
2019-05-19T22:52:27.365Z,48.50
2019-05-19T22:54:56.017Z,48.70
2019-05-19T22:57:24.736Z,48.60
2019-05-19T22:59:53.414Z,48.80
2019-05-19T23:02:23.190Z,48.70
2019-05-19T23:04:51.977Z,48.60
2019-05-19T23:07:20.670Z,48.50
2019-05-19T23:09:49.695Z,48.60
2019-05-19T23:12:18.377Z,48.70
2019-05-19T23:14:47.071Z,48.70
2019-05-19T23:17:16.047Z,48.60
2019-05-19T23:19:44.743Z,48.60
2019-05-19T23:22:13.413Z,48.40
2019-05-19T23:24:42.313Z,48.60
2019-05-19T23:27:11.009Z,48.50
2019-05-19T23:29:39.671Z,48.50
2019-05-19T23:32:08.376Z,49.10
2019-05-19T23:34:37.054Z,48.60
2019-05-19T23:37:05.762Z,48.60
2019-05-19T23:39:34.482Z,48.80
2019-05-19T23:42:03.192Z,48.60
2019-05-19T23:44:31.906Z,48.70
2019-05-19T23:47:00.559Z,48.70
2019-05-19T23:49:29.262Z,48.80
2019-05-19T23:51:57.935Z,48.60
2019-05-19T23:54:26.634Z,48.60
2019-05-19T23:56:55.300Z,48.90
2019-05-19T23:59:23.963Z,48.80
